createdAt,value
2019-02-28T00:01:28.809Z,16.90
2019-02-28T00:03:59.015Z,16.20
2019-02-28T00:06:28.501Z,15.87
2019-02-28T00:08:57.563Z,14.53
2019-02-28T00:11:26.662Z,15.30
2019-02-28T00:13:56.584Z,15.90
2019-02-28T00:16:25.738Z,14.70
2019-02-28T00:18:54.974Z,15.30
2019-02-28T00:21:24.101Z,14.70
2019-02-28T00:23:56.634Z,16.47
2019-02-28T00:26:24.620Z,16.23
2019-02-28T00:28:53.942Z,15.67
2019-02-28T00:31:23.103Z,16.70
2019-02-28T00:33:52.833Z,15.83
2019-02-28T00:36:21.915Z,17.87
2019-02-28T00:38:51.070Z,16.40
2019-02-28T00:41:20.099Z,16.53
2019-02-28T00:43:49.280Z,16.50
2019-02-28T00:46:18.361Z,15.00
2019-02-28T00:48:47.464Z,14.77
2019-02-28T00:51:16.787Z,16.67
2019-02-28T00:53:45.992Z,17.10
2019-02-28T00:56:17.554Z,17.13
2019-02-28T00:58:46.319Z,15.90
2019-02-28T01:01:15.525Z,17.57
2019-02-28T01:03:45.113Z,14.27
2019-02-28T01:06:14.206Z,16.30
2019-02-28T01:08:43.402Z,15.03
2019-02-28T01:11:13.284Z,16.37
2019-02-28T01:13:43.087Z,15.70
2019-02-28T01:16:12.258Z,15.60
2019-02-28T01:18:41.346Z,15.67
2019-02-28T01:21:10.425Z,15.63
2019-02-28T01:23:39.607Z,12.70
2019-02-28T01:26:11.800Z,13.53
2019-02-28T01:28:39.590Z,13.07
2019-02-28T01:31:11.560Z,12.23
2019-02-28T01:33:39.415Z,13.30
2019-02-28T01:36:09.062Z,16.17
2019-02-28T01:38:38.197Z,13.97
2019-02-28T01:41:08.311Z,13.60
2019-02-28T01:43:38.386Z,13.73
2019-02-28T01:46:07.686Z,13.67
2019-02-28T01:48:36.864Z,12.43
2019-02-28T01:51:05.960Z,12.47
2019-02-28T01:53:35.257Z,13.60
2019-02-28T01:56:04.335Z,12.07
2019-02-28T01:58:34.546Z,11.30
2019-02-28T02:01:03.779Z,12.83
2019-02-28T02:03:33.157Z,13.00
2019-02-28T02:06:02.159Z,16.30
2019-02-28T02:08:31.523Z,15.00
2019-02-28T02:11:00.640Z,13.87
2019-02-28T02:13:31.384Z,14.13
2019-02-28T02:16:00.734Z,14.57
2019-02-28T02:18:30.167Z,14.90
2019-02-28T02:21:00.238Z,14.47
2019-02-28T02:23:29.942Z,13.03
2019-02-28T02:25:58.957Z,17.80
2019-02-28T02:28:28.070Z,16.17
2019-02-28T02:30:58.401Z,16.13
2019-02-28T02:33:27.602Z,14.53
2019-02-28T02:35:56.797Z,13.97
2019-02-28T02:38:26.190Z,12.93
2019-02-28T02:40:59.429Z,12.07
2019-02-28T02:43:26.300Z,12.07
2019-02-28T02:45:55.722Z,12.27
2019-02-28T02:48:24.821Z,13.00
2019-02-28T02:50:54.140Z,12.60
2019-02-28T02:53:25.175Z,13.33
2019-02-28T02:55:54.824Z,12.60
2019-02-28T02:58:27.811Z,11.47
2019-02-28T03:00:54.882Z,11.90
2019-02-28T03:03:24.095Z,12.40
2019-02-28T03:05:53.372Z,12.80
2019-02-28T03:08:22.433Z,13.53
2019-02-28T03:10:53.310Z,13.93
2019-02-28T03:13:22.522Z,13.27
2019-02-28T03:15:51.593Z,13.90
2019-02-28T03:18:21.683Z,12.90
2019-02-28T03:20:51.027Z,13.30
2019-02-28T03:23:20.055Z,13.37
2019-02-28T03:25:49.311Z,11.20
2019-02-28T03:28:18.448Z,12.87
2019-02-28T03:30:47.546Z,12.27
2019-02-28T03:33:25.181Z,13.00
2019-02-28T03:35:48.250Z,13.40
2019-02-28T03:38:17.336Z,11.33
2019-02-28T03:40:46.404Z,12.53
2019-02-28T03:43:15.760Z,11.73
2019-02-28T03:45:44.815Z,12.00
2019-02-28T03:48:14.041Z,10.43
2019-02-28T03:50:43.151Z,11.03
2019-02-28T03:53:19.613Z,11.50
2019-02-28T03:55:43.168Z,10.90
2019-02-28T03:58:12.216Z,11.20
2019-02-28T04:00:41.390Z,11.93
2019-02-28T04:03:10.465Z,14.37
2019-02-28T04:05:39.539Z,13.20
2019-02-28T04:08:08.633Z,13.23
2019-02-28T04:10:38.106Z,12.13
2019-02-28T04:13:07.145Z,12.70
2019-02-28T04:15:38.141Z,12.00
2019-02-28T04:18:08.471Z,10.70
2019-02-28T04:20:38.102Z,11.00
2019-02-28T04:23:07.288Z,12.20
2019-02-28T04:25:36.342Z,11.20
2019-02-28T04:28:05.533Z,11.00
2019-02-28T04:30:35.282Z,11.50
2019-02-28T04:33:04.327Z,12.40
2019-02-28T04:35:33.394Z,10.97
2019-02-28T04:38:02.452Z,11.90
2019-02-28T04:40:31.722Z,11.97
2019-02-28T04:43:00.816Z,11.57
2019-02-28T04:45:30.062Z,11.40
2019-02-28T04:47:59.273Z,12.03
2019-02-28T04:50:31.551Z,14.63
2019-02-28T04:52:59.123Z,14.90
2019-02-28T04:55:28.123Z,17.47
2019-02-28T04:57:57.199Z,19.53
2019-02-28T05:00:26.290Z,20.00
2019-02-28T05:02:55.436Z,18.93
2019-02-28T05:05:24.624Z,19.23
2019-02-28T05:07:53.953Z,19.20
2019-02-28T05:10:23.121Z,18.60
2019-02-28T05:12:52.364Z,18.37
2019-02-28T05:15:21.726Z,18.80
2019-02-28T05:17:53.054Z,19.53
2019-02-28T05:20:21.591Z,17.27
2019-02-28T05:22:50.747Z,17.87
2019-02-28T05:25:19.853Z,18.10
2019-02-28T05:27:48.916Z,17.57
2019-02-28T05:30:19.670Z,18.03
2019-02-28T05:32:49.769Z,18.40
2019-02-28T05:35:18.898Z,16.50
2019-02-28T05:37:48.594Z,16.50
2019-02-28T05:40:17.762Z,18.43
2019-02-28T05:42:46.981Z,17.70
2019-02-28T05:45:16.211Z,18.63
2019-02-28T05:47:47.177Z,17.00
2019-02-28T05:50:17.253Z,17.63
2019-02-28T05:52:46.942Z,18.67
2019-02-28T05:55:16.050Z,15.83
2019-02-28T05:57:45.322Z,16.77
2019-02-28T06:00:15.563Z,16.93
2019-02-28T06:02:44.720Z,16.87
2019-02-28T06:05:13.848Z,16.70
2019-02-28T06:07:43.214Z,16.20
2019-02-28T06:10:12.313Z,15.17
2019-02-28T06:12:43.658Z,15.37
2019-02-28T06:15:12.758Z,16.07
2019-02-28T06:17:41.875Z,15.63
2019-02-28T06:20:11.772Z,14.87
2019-02-28T06:22:41.335Z,15.30
2019-02-28T06:25:10.838Z,13.67
2019-02-28T06:27:41.802Z,15.57
2019-02-28T06:30:11.782Z,14.90
2019-02-28T06:32:41.098Z,14.70
2019-02-28T06:35:10.305Z,12.47
2019-02-28T06:37:39.511Z,15.60
2019-02-28T06:40:10.933Z,14.27
2019-02-28T06:42:40.236Z,14.60
2019-02-28T06:45:11.779Z,15.70
2019-02-28T06:47:40.875Z,14.13
2019-02-28T06:50:12.960Z,14.47
2019-02-28T06:52:42.831Z,14.23
2019-02-28T06:55:15.374Z,14.63
2019-02-28T06:57:44.968Z,13.43
2019-02-28T07:00:14.336Z,13.50
2019-02-28T07:02:43.463Z,13.83
2019-02-28T07:05:13.035Z,14.57
2019-02-28T07:07:42.109Z,15.20
2019-02-28T07:10:12.641Z,16.33
2019-02-28T07:12:42.342Z,13.90
2019-02-28T07:15:11.597Z,13.70
2019-02-28T07:17:42.663Z,14.20
2019-02-28T07:20:13.341Z,14.87
2019-02-28T07:22:42.418Z,13.90
2019-02-28T07:25:12.644Z,14.60
2019-02-28T07:27:42.700Z,15.30
2019-02-28T07:30:17.458Z,14.53
2019-02-28T07:32:44.991Z,15.20
2019-02-28T07:35:14.176Z,13.63
2019-02-28T07:37:43.235Z,14.40
2019-02-28T07:40:16.281Z,15.63
2019-02-28T07:42:43.827Z,14.00
2019-02-28T07:45:13.241Z,13.87
2019-02-28T07:47:42.284Z,15.30
2019-02-28T07:50:11.595Z,14.37
2019-02-28T07:52:40.947Z,15.20
2019-02-28T07:55:10.960Z,14.90
2019-02-28T07:57:40.056Z,14.97
2019-02-28T08:00:16.755Z,15.23
2019-02-28T08:02:43.716Z,15.83
2019-02-28T08:05:13.483Z,13.60
2019-02-28T08:07:42.743Z,15.00
2019-02-28T08:10:15.981Z,14.97
2019-02-28T08:12:44.101Z,15.60
2019-02-28T08:15:22.440Z,14.50
2019-02-28T08:17:51.248Z,17.00
2019-02-28T08:20:21.015Z,16.47
2019-02-28T08:22:50.115Z,16.17
2019-02-28T08:25:19.363Z,18.20
2019-02-28T08:27:48.579Z,16.03
2019-02-28T08:30:20.561Z,15.83
2019-02-28T08:32:49.757Z,17.13
2019-02-28T08:35:18.965Z,16.43
2019-02-28T08:37:48.189Z,15.93
2019-02-28T08:40:18.885Z,16.47
2019-02-28T08:42:50.116Z,15.70
2019-02-28T08:45:19.241Z,17.63
2019-02-28T08:47:48.446Z,15.93
2019-02-28T08:50:20.665Z,17.40
2019-02-28T08:52:51.419Z,16.47
2019-02-28T08:55:28.123Z,19.30
2019-02-28T08:57:55.695Z,17.13
2019-02-28T09:00:22.890Z,16.50
2019-02-28T09:02:52.890Z,17.50
2019-02-28T09:05:27.282Z,17.30
2019-02-28T09:07:55.451Z,15.63
2019-02-28T09:10:24.724Z,16.40
2019-02-28T09:12:53.948Z,18.70
2019-02-28T09:15:23.067Z,17.17
2019-02-28T09:17:52.308Z,16.77
2019-02-28T09:20:21.438Z,17.03
2019-02-28T09:22:51.039Z,16.60
2019-02-28T09:25:22.152Z,17.47
2019-02-28T09:27:51.127Z,17.67
2019-02-28T09:30:26.554Z,17.20
2019-02-28T09:32:57.731Z,16.30
2019-02-28T09:35:26.930Z,17.30
2019-02-28T09:37:56.053Z,18.50
2019-02-28T09:40:25.917Z,17.33
2019-02-28T09:42:56.104Z,17.63
2019-02-28T09:45:26.110Z,17.10
2019-02-28T09:47:55.228Z,17.80
2019-02-28T09:50:24.652Z,17.40
2019-02-28T09:52:53.959Z,17.87
2019-02-28T09:55:23.239Z,16.93
2019-02-28T09:57:54.726Z,16.07
2019-02-28T10:00:23.929Z,16.90
2019-02-28T10:02:53.174Z,17.10
2019-02-28T10:05:22.607Z,17.10
2019-02-28T10:07:52.157Z,17.90
2019-02-28T10:10:22.004Z,18.07
2019-02-28T10:12:51.114Z,17.30
2019-02-28T10:15:20.757Z,17.83
2019-02-28T10:17:49.999Z,15.93
2019-02-28T10:20:27.037Z,16.10
2019-02-28T10:22:55.024Z,17.57
2019-02-28T10:25:24.139Z,17.40
2019-02-28T10:27:54.693Z,17.40
2019-02-28T10:30:31.312Z,18.20
2019-02-28T10:32:55.185Z,17.00
2019-02-28T10:35:24.364Z,18.40
2019-02-28T10:37:57.203Z,18.10
2019-02-28T10:40:25.016Z,18.47
2019-02-28T10:42:54.065Z,17.87
2019-02-28T10:45:23.384Z,17.60
2019-02-28T10:47:52.597Z,18.00
2019-02-28T10:50:23.537Z,18.33
2019-02-28T10:52:52.763Z,18.87
2019-02-28T10:55:23.234Z,17.90
2019-02-28T10:57:52.432Z,17.30
2019-02-28T11:00:25.854Z,18.67
2019-02-28T11:02:57.475Z,16.80
2019-02-28T11:05:28.696Z,16.80
2019-02-28T11:07:58.361Z,16.40
2019-02-28T11:10:36.937Z,17.50
2019-02-28T11:13:08.421Z,16.93
2019-02-28T11:15:37.647Z,17.43
2019-02-28T11:18:09.646Z,17.77
2019-02-28T11:20:38.026Z,18.57
2019-02-28T11:23:07.789Z,17.70
2019-02-28T11:25:37.214Z,19.07
2019-02-28T11:28:06.469Z,20.10
2019-02-28T11:30:36.180Z,17.90
2019-02-28T11:33:07.206Z,18.10
2019-02-28T11:35:36.525Z,19.57
2019-02-28T11:38:05.840Z,17.97
2019-02-28T11:40:35.189Z,18.50
2019-02-28T11:43:04.717Z,18.80
2019-02-28T11:45:34.788Z,18.63
2019-02-28T11:48:05.042Z,18.60
2019-02-28T11:50:34.368Z,18.60
2019-02-28T11:53:05.907Z,18.37
2019-02-28T11:55:34.701Z,18.67
2019-02-28T11:58:03.967Z,16.90
2019-02-28T12:00:35.655Z,17.67
2019-02-28T12:03:05.567Z,18.30
2019-02-28T12:05:34.951Z,18.90
2019-02-28T12:08:09.347Z,19.00
2019-02-28T12:10:35.095Z,20.00
2019-02-28T12:13:04.296Z,18.47
2019-02-28T12:15:33.442Z,18.60
2019-02-28T12:18:04.467Z,19.60
2019-02-28T12:20:34.184Z,20.13
2019-02-28T12:23:03.378Z,18.80
2019-02-28T12:25:32.523Z,18.17
2019-02-28T12:28:02.931Z,19.50
2019-02-28T12:30:32.957Z,18.70
2019-02-28T12:33:02.004Z,18.57
2019-02-28T12:35:36.272Z,17.90
2019-02-28T12:38:03.013Z,18.87
2019-02-28T12:40:32.353Z,18.80
2019-02-28T12:43:01.579Z,16.97
2019-02-28T12:45:33.231Z,18.47
2019-02-28T12:48:02.323Z,19.20
2019-02-28T12:50:31.514Z,16.93
2019-02-28T12:53:00.677Z,17.90
2019-02-28T12:55:29.745Z,16.63
2019-02-28T12:57:59.073Z,19.20
2019-02-28T13:00:31.497Z,16.70
2019-02-28T13:03:00.696Z,18.17
2019-02-28T13:05:30.399Z,18.87
2019-02-28T13:07:59.586Z,18.40
2019-02-28T13:10:31.055Z,18.27
2019-02-28T13:13:06.200Z,17.20
2019-02-28T13:15:30.775Z,17.93
2019-02-28T13:17:59.996Z,17.20
2019-02-28T13:20:33.551Z,17.47
2019-02-28T13:23:01.104Z,19.23
2019-02-28T13:25:30.469Z,18.63
2019-02-28T13:27:59.753Z,16.80
2019-02-28T13:30:28.866Z,17.67
2019-02-28T13:32:58.038Z,17.67
2019-02-28T13:35:29.808Z,15.50
2019-02-28T13:37:58.989Z,16.10
2019-02-28T13:40:28.533Z,16.67
2019-02-28T13:42:57.623Z,16.20
2019-02-28T13:45:26.887Z,15.97
2019-02-28T13:47:56.020Z,15.27
2019-02-28T13:50:27.049Z,17.90
2019-02-28T13:52:56.523Z,16.33
2019-02-28T13:55:25.733Z,17.17
2019-02-28T13:57:54.849Z,17.60
2019-02-28T14:00:28.786Z,17.40
2019-02-28T14:03:09.182Z,16.27
2019-02-28T14:05:38.770Z,16.20
2019-02-28T14:08:09.840Z,16.00
2019-02-28T14:10:36.001Z,15.90
2019-02-28T14:13:05.619Z,18.80
2019-02-28T14:15:42.875Z,17.17
2019-02-28T14:18:12.360Z,18.27
2019-02-28T14:20:42.394Z,17.57
2019-02-28T14:23:11.488Z,17.17
2019-02-28T14:25:41.244Z,17.90
2019-02-28T14:28:10.935Z,20.27
2019-02-28T14:30:40.067Z,19.10
2019-02-28T14:33:09.732Z,18.87
2019-02-28T14:35:38.999Z,19.30
2019-02-28T14:38:08.213Z,18.10
2019-02-28T14:40:37.345Z,19.47
2019-02-28T14:43:06.578Z,18.60
2019-02-28T14:45:39.123Z,19.60
2019-02-28T14:48:09.309Z,19.50
2019-02-28T14:50:39.232Z,19.60
2019-02-28T14:53:13.026Z,18.87
2019-02-28T14:55:39.886Z,20.33
2019-02-28T14:58:09.285Z,19.37
2019-02-28T15:00:42.311Z,20.00
2019-02-28T15:03:10.871Z,19.83
2019-02-28T15:05:40.195Z,20.37
2019-02-28T15:08:11.780Z,20.77
2019-02-28T15:10:40.893Z,18.60
2019-02-28T15:13:10.315Z,18.70
2019-02-28T15:15:39.964Z,20.13
2019-02-28T15:18:10.953Z,18.70
2019-02-28T15:20:40.061Z,20.17
2019-02-28T15:23:09.163Z,18.67
2019-02-28T15:25:38.675Z,19.70
2019-02-28T15:28:10.713Z,20.00
2019-02-28T15:30:39.229Z,17.40
2019-02-28T15:33:08.349Z,19.53
2019-02-28T15:35:37.764Z,20.27
2019-02-28T15:38:09.125Z,19.10
2019-02-28T15:40:40.346Z,18.07
2019-02-28T15:43:09.004Z,17.77
2019-02-28T15:45:38.071Z,17.30
2019-02-28T15:48:07.289Z,20.30
2019-02-28T15:50:36.584Z,15.50
2019-02-28T15:53:07.708Z,16.00
2019-02-28T15:55:36.690Z,14.93
2019-02-28T15:58:07.107Z,14.00
2019-02-28T16:00:36.303Z,11.63
2019-02-28T16:03:05.648Z,12.37
2019-02-28T16:05:34.927Z,12.20
2019-02-28T16:08:08.951Z,12.43
2019-02-28T16:10:35.218Z,13.03
2019-02-28T16:13:06.779Z,12.07
2019-02-28T16:15:35.998Z,12.33
2019-02-28T16:18:08.836Z,12.70
2019-02-28T16:20:38.316Z,13.50
2019-02-28T16:23:07.682Z,13.50
2019-02-28T16:25:37.492Z,13.13
2019-02-28T16:28:08.849Z,11.80
2019-02-28T16:30:38.752Z,12.97
2019-02-28T16:33:07.928Z,12.77
2019-02-28T16:35:37.519Z,13.87
2019-02-28T16:38:09.853Z,14.20
2019-02-28T16:40:37.922Z,17.43
2019-02-28T16:43:07.051Z,18.27
2019-02-28T16:45:41.014Z,17.57
2019-02-28T16:48:11.294Z,17.50
2019-02-28T16:50:40.438Z,16.30
2019-02-28T16:53:14.964Z,18.27
2019-02-28T16:55:40.801Z,18.07
2019-02-28T16:58:10.153Z,17.30
2019-02-28T17:00:42.249Z,16.17
2019-02-28T17:03:10.220Z,17.80
2019-02-28T17:05:39.803Z,16.80
2019-02-28T17:08:09.236Z,15.50
2019-02-28T17:10:40.045Z,17.73
2019-02-28T17:13:18.030Z,16.10
2019-02-28T17:15:55.853Z,15.30
2019-02-28T17:18:24.217Z,15.70
2019-02-28T17:20:53.844Z,15.50
2019-02-28T17:23:22.931Z,16.40
2019-02-28T17:25:53.451Z,14.27
2019-02-28T17:28:41.900Z,12.67
2019-02-28T17:31:22.373Z,12.93
2019-02-28T17:33:51.799Z,11.40
2019-02-28T17:36:21.073Z,10.67
2019-02-28T17:38:50.164Z,12.00
2019-02-28T17:41:19.360Z,11.07
2019-02-28T17:44:16.845Z,10.97
2019-02-28T17:46:48.156Z,11.40
2019-02-28T17:49:47.835Z,12.07
2019-02-28T17:52:22.752Z,11.83
2019-02-28T17:55:54.193Z,11.47
2019-02-28T17:59:09.619Z,10.30
2019-02-28T18:02:25.553Z,11.27
2019-02-28T18:05:30.138Z,10.10
2019-02-28T18:08:23.464Z,9.17
2019-02-28T18:11:30.872Z,10.30
2019-02-28T18:14:24.215Z,10.20
2019-02-28T18:17:43.721Z,9.97
2019-02-28T18:20:28.997Z,8.47
2019-02-28T18:23:34.644Z,8.10
2019-02-28T18:26:39.790Z,8.80
2019-02-28T18:29:21.771Z,7.90
2019-02-28T18:31:53.904Z,7.47
2019-02-28T18:34:30.780Z,7.43
2019-02-28T18:36:59.906Z,6.30
2019-02-28T18:39:29.061Z,7.00
2019-02-28T18:41:58.234Z,7.03
2019-02-28T18:44:27.358Z,6.20
2019-02-28T18:46:56.644Z,6.17
2019-02-28T18:49:26.689Z,6.00
2019-02-28T18:51:57.017Z,6.20
2019-02-28T18:54:26.912Z,8.80
2019-02-28T18:56:57.886Z,6.40
2019-02-28T18:59:27.815Z,6.33
2019-02-28T19:01:56.956Z,6.47
2019-02-28T19:04:26.209Z,7.00
2019-02-28T19:06:56.762Z,6.30
2019-02-28T19:09:26.041Z,5.53
2019-02-28T19:11:56.275Z,5.37
2019-02-28T19:14:26.061Z,4.83
2019-02-28T19:16:55.544Z,5.20
2019-02-28T19:19:24.620Z,5.63
2019-02-28T19:21:53.770Z,5.43
2019-02-28T19:24:23.139Z,4.70
2019-02-28T19:26:56.985Z,5.30
2019-02-28T19:29:26.155Z,4.97
2019-02-28T19:31:55.300Z,4.47
2019-02-28T19:34:24.618Z,5.20
2019-02-28T19:36:58.883Z,4.97
2019-02-28T19:39:29.509Z,4.10
2019-02-28T19:41:59.216Z,4.33
2019-02-28T19:44:29.778Z,4.33
2019-02-28T19:46:59.411Z,4.53
2019-02-28T19:49:28.802Z,4.40
2019-02-28T19:51:57.990Z,4.40
2019-02-28T19:54:27.103Z,4.30
2019-02-28T19:56:57.868Z,3.83
2019-02-28T19:59:27.200Z,4.37
2019-02-28T20:01:56.408Z,4.30
2019-02-28T20:04:25.966Z,4.63
2019-02-28T20:06:56.234Z,3.83
2019-02-28T20:09:25.559Z,4.40
2019-02-28T20:11:54.741Z,4.50
2019-02-28T20:14:24.351Z,4.33
2019-02-28T20:16:53.988Z,4.40
2019-02-28T20:19:23.190Z,4.27
2019-02-28T20:21:52.534Z,4.90
2019-02-28T20:24:21.916Z,3.83
2019-02-28T20:26:51.895Z,4.70
2019-02-28T20:29:21.585Z,4.93
2019-02-28T20:31:51.405Z,4.90
2019-02-28T20:34:22.309Z,4.10
2019-02-28T20:36:51.825Z,5.20
2019-02-28T20:39:21.378Z,3.23
2019-02-28T20:41:50.475Z,4.20
2019-02-28T20:44:19.577Z,4.43
2019-02-28T20:46:48.719Z,4.77
2019-02-28T20:49:17.931Z,4.57
2019-02-28T20:51:54.823Z,4.30
2019-02-28T20:54:18.400Z,4.90
2019-02-28T20:56:47.721Z,5.17
2019-02-28T20:59:16.927Z,4.77
2019-02-28T21:01:46.022Z,5.17
2019-02-28T21:04:15.217Z,5.00
2019-02-28T21:06:44.424Z,4.60
2019-02-28T21:09:15.931Z,5.07
2019-02-28T21:11:45.058Z,4.77
2019-02-28T21:14:14.443Z,5.03
2019-02-28T21:16:44.169Z,4.57
2019-02-28T21:19:15.146Z,5.50
2019-02-28T21:21:44.463Z,4.60
2019-02-28T21:24:13.759Z,4.83
2019-02-28T21:26:43.055Z,4.83
2019-02-28T21:29:12.291Z,4.80
2019-02-28T21:31:41.407Z,4.67
2019-02-28T21:34:10.607Z,4.13
2019-02-28T21:36:39.986Z,3.83
2019-02-28T21:39:10.339Z,4.87
2019-02-28T21:41:39.618Z,4.33
2019-02-28T21:44:08.712Z,4.53
2019-02-28T21:46:37.802Z,4.20
2019-02-28T21:49:06.976Z,4.10
2019-02-28T21:51:36.073Z,4.90
2019-02-28T21:54:05.497Z,4.60
2019-02-28T21:56:34.695Z,4.33
2019-02-28T21:59:04.011Z,4.00
2019-02-28T22:01:33.145Z,4.57
2019-02-28T22:04:02.260Z,4.27
2019-02-28T22:06:31.472Z,4.60
2019-02-28T22:09:00.915Z,4.10
2019-02-28T22:11:29.981Z,3.80
2019-02-28T22:13:59.208Z,4.93
2019-02-28T22:16:28.244Z,4.30
2019-02-28T22:18:57.692Z,4.30
2019-02-28T22:21:26.883Z,4.17
2019-02-28T22:23:56.006Z,4.40
2019-02-28T22:26:25.252Z,4.40
2019-02-28T22:28:54.351Z,5.33
2019-02-28T22:31:46.502Z,3.60
2019-02-28T22:34:37.351Z,4.13
2019-02-28T22:37:06.504Z,4.47
2019-02-28T22:39:35.600Z,5.00
2019-02-28T22:42:06.362Z,4.00
2019-02-28T22:44:35.679Z,4.27
2019-02-28T22:47:05.646Z,4.10
2019-02-28T22:49:35.353Z,5.10
2019-02-28T22:52:04.437Z,4.10
2019-02-28T22:54:33.501Z,4.73
2019-02-28T22:57:02.733Z,5.10
2019-02-28T22:59:31.962Z,4.80
2019-02-28T23:02:01.149Z,4.90
2019-02-28T23:04:30.372Z,5.87
2019-02-28T23:06:59.473Z,5.30
2019-02-28T23:09:28.805Z,5.67
2019-02-28T23:11:58.027Z,6.27
2019-02-28T23:14:27.282Z,6.40
2019-02-28T23:16:56.511Z,6.63
2019-02-28T23:19:25.675Z,5.40
2019-02-28T23:21:54.910Z,5.67
2019-02-28T23:24:24.190Z,5.63
2019-02-28T23:27:27.648Z,6.43
2019-02-28T23:30:27.796Z,6.73
2019-02-28T23:33:00.359Z,6.10
2019-02-28T23:35:32.659Z,6.50
2019-02-28T23:38:01.755Z,7.10
2019-02-28T23:40:30.858Z,6.43
2019-02-28T23:42:59.885Z,6.30
2019-02-28T23:45:29.074Z,5.83
2019-02-28T23:47:58.308Z,6.10
2019-02-28T23:50:27.763Z,5.63
2019-02-28T23:52:56.821Z,5.77
2019-02-28T23:55:26.003Z,6.40
2019-02-28T23:57:55.212Z,5.67
